Welcome to Crazy Orc, l'antre du jeu de rôles à Lyon. Please login or sign up.

29 Septembre 2023 à 13:02:06

Login with username, password and session length

Crazy Orc, l'antre du jeu de rôles à Lyon - Centre de statistiques

Statistiques générales

Total des membres:
710
Total des messages:
97771
Total des sujets:
4217
Total des catégories:
4
Membres en ligne:
11
Connexions simultanées:
808 - 21 Janvier 2020 à 20:55:59
En ligne aujourd'hui:
21
Total des pages vues:
36651672
Moyenne des inscriptions par jour:
0.26
Moyenne des messages par jour:
23.41
Moyenne des sujets par jour:
1.06
Total des sections:
40
Dernier membre:
MJ White Davor
Moyenne d'utilisateurs connectés par jour:
50.57
Statistiques des sexes:
Ne pas afficher: 342
Masculin: 309
Féminin: 59
Pages vues en moyenne par jour:
6058.13

Top 10 des posteurs

ManuDevil
6981
GroumpH
5098
nunch
3857
LeDupontesque
3068
jules
3026
Mandy
2883
Scratchy
2766
MAO
2493
snake
1947
Le0
1878

Top lanceurs de sujets

nunch
600
Morithil
398
ManuDevil
292
GroumpH
246
Scratchy
132
MAO
110
LeDupontesque
106
jules
99
snake
92
CCCP
86

Le plus de temps en ligne

Mandy
133 j 19 h 59 m
GroumpH
112 j 9 h 16 m
CCCP
88 j 6 h 11 m
Nukeflow
73 j 8 h 19 m
ManuDevil
69 j 18 m
Felipe
61 j 12 h 19 m
dao
56 j 17 h 58 m
nunch
49 j 1 h 47 m
Rh
42 j 23 h 32 m
Patate
42 j 15 h 38 m

Les utilisateurs les plus aimés

ManuDevil
48
Arkana31
31
LeDupontesque
18
Patate
11
Morithil
10
MJulien
6
Lightblaste
5
CCCP
5
apoxx
4
Bulwaid
4

Historique du forum (basé sur l'heure interne du forum)

Résumé annuel Nouveaux sujets Nouveaux messages Nouveaux membres Connexions simultanées Pages vues
* 2023 143 902 94 182 2619147
Septembre 2023 19 178 16 138 356594
Août 2023 8 42 7 130 236673
Juillet 2023 6 39 4 140 269774
Juin 2023 23 109 10 159 303581
Mai 2023 23 124 16 182 262587
Avril 2023 19 159 11 174 284480
Mars 2023 13 86 6 155 330966
Février 2023 13 62 5 165 274947
Janvier 2023 19 103 19 148 299545
* 2022 183 1154 96 261 3778792
Décembre 2022 9 37 1 161 306381
Novembre 2022 16 103 6 261 350274
Octobre 2022 11 120 17 208 290108
2022-10-01 0 0 0 46 10196
2022-10-02 0 2 0 45 6099
2022-10-03 0 6 2 63 9412
2022-10-04 1 5 1 114 7925
2022-10-05 0 2 0 119 10788
2022-10-06 0 2 0 135 8531
2022-10-07 0 5 1 86 8823
2022-10-08 0 2 1 99 11829
2022-10-09 0 0 0 117 10515
2022-10-10 0 0 0 132 13266
2022-10-11 0 7 1 144 10128
2022-10-12 1 9 1 208 15786
2022-10-13 1 5 1 182 15119
2022-10-14 2 2 0 147 13116
2022-10-15 1 8 1 192 17135
2022-10-16 0 0 2 155 8626
2022-10-17 2 5 0 105 7879
2022-10-18 0 0 0 58 5903
2022-10-19 0 2 0 64 7645
2022-10-20 0 10 1 106 4198
2022-10-21 0 4 1 56 4202
2022-10-22 0 2 0 122 10015
2022-10-23 0 2 0 96 8013
2022-10-24 0 2 1 77 6882
2022-10-25 1 12 1 96 8317
2022-10-26 2 7 1 110 6687
2022-10-27 0 5 0 51 5051
2022-10-28 0 2 0 69 7681
2022-10-29 0 5 0 68 11986
2022-10-30 0 3 0 65 8226
2022-10-31 0 4 1 131 10129
Septembre 2022 17 115 6 258 357415
Août 2022 15 108 9 147 318817
Juillet 2022 13 69 4 208 308045
2022-07-01 0 3 1 130 10470
2022-07-02 0 0 0 126 12286
2022-07-03 0 0 0 105 10333
2022-07-04 0 0 0 125 10536
2022-07-05 0 2 1 208 12011
2022-07-06 1 2 0 120 9304
2022-07-07 0 1 0 104 9813
2022-07-08 0 4 0 144 6805
2022-07-09 1 3 0 107 5518
2022-07-10 0 2 0 74 7874
2022-07-11 0 2 0 84 8866
2022-07-12 0 0 0 80 13254
2022-07-13 0 0 0 90 14396
2022-07-14 0 0 0 87 13406
2022-07-15 0 0 0 85 13000
2022-07-16 0 0 0 87 10929
2022-07-17 0 0 0 84 10797
2022-07-18 0 2 0 87 10363
2022-07-19 0 6 0 87 11795
2022-07-20 0 9 0 90 9464
2022-07-21 0 4 0 81 7119
2022-07-22 0 6 0 88 10235
2022-07-23 0 5 0 82 12225
2022-07-24 0 0 0 89 9931
2022-07-25 0 0 0 88 8327
2022-07-26 0 0 0 80 8196
2022-07-27 10 11 0 79 8586
2022-07-28 1 2 1 80 5579
2022-07-29 0 1 1 116 6590
2022-07-30 0 2 0 109 11625
2022-07-31 0 2 0 101 8412
Juin 2022 14 76 4 62 333112
2022-06-01 0 0 0 55 10341
2022-06-02 0 2 0 45 8295
2022-06-03 0 4 0 46 10976
2022-06-04 0 5 1 46 7086
2022-06-05 2 5 0 44 11765
2022-06-06 2 4 0 46 12530
2022-06-07 0 5 0 53 7853
2022-06-08 1 2 0 54 12848
2022-06-09 0 1 1 49 12757
2022-06-10 0 1 0 57 14855
2022-06-11 0 1 0 52 13230
2022-06-12 0 0 0 49 10232
2022-06-13 2 5 0 52 11255
2022-06-14 0 3 0 62 9963
2022-06-15 0 2 1 50 10794
2022-06-16 0 1 0 48 11647
2022-06-17 0 1 0 58 10367
2022-06-18 0 1 0 53 9995
2022-06-19 0 0 0 45 7787
2022-06-20 0 4 0 42 6688
2022-06-21 0 0 0 48 12592
2022-06-22 0 0 0 40 12805
2022-06-23 0 1 0 35 8798
2022-06-24 0 1 0 52 22323
2022-06-25 0 4 0 44 8725
2022-06-26 0 2 0 43 12350
2022-06-27 7 13 1 50 11399
2022-06-28 0 7 0 51 11591
2022-06-29 0 1 0 42 12634
2022-06-30 0 0 0 44 8631
Mai 2022 16 118 8 91 339244
2022-05-01 0 6 0 50 6710
2022-05-02 0 2 2 44 5920
2022-05-03 0 2 0 44 6901
2022-05-04 0 6 0 48 11189
2022-05-05 0 1 0 47 12307
2022-05-06 0 1 0 60 23346
2022-05-07 0 6 1 61 29361
2022-05-08 1 5 1 91 19240
2022-05-09 1 12 0 72 14879
2022-05-10 0 2 0 61 15852
2022-05-11 0 0 0 59 11814
2022-05-12 2 14 1 43 8964
2022-05-13 0 5 0 58 6886
2022-05-14 0 2 0 32 8302
2022-05-15 0 0 0 39 10632
2022-05-16 7 9 0 59 11094
2022-05-17 1 6 1 40 9245
2022-05-18 0 3 0 43 9669
2022-05-19 0 3 0 36 10724
2022-05-20 0 4 0 47 13804
2022-05-21 0 5 0 46 8820
2022-05-22 1 2 0 45 8742
2022-05-23 2 2 0 45 9308
2022-05-24 0 4 1 52 9886
2022-05-25 0 2 0 48 7740
2022-05-26 0 3 0 47 8972
2022-05-27 0 2 0 49 7978
2022-05-28 1 3 1 47 7507
2022-05-29 0 2 0 43 5171
2022-05-30 0 3 0 49 8361
2022-05-31 0 1 0 49 9920
Avril 2022 18 133 12 61 254691
2022-04-01 0 6 0 49 15444
2022-04-02 0 2 1 49 8967
2022-04-03 4 5 0 38 8148
2022-04-04 1 9 1 43 10158
2022-04-05 0 3 1 41 13979
2022-04-06 0 8 0 36 9247
2022-04-07 1 5 0 43 12333
2022-04-08 0 4 0 43 10696
2022-04-09 1 5 2 41 14859
2022-04-10 1 7 3 41 17217
2022-04-11 2 5 0 46 14030
2022-04-12 0 1 0 34 9483
2022-04-13 2 4 0 35 6925
2022-04-14 0 7 0 48 6203
2022-04-15 0 7 0 49 6464
2022-04-16 0 5 0 35 4327
2022-04-17 0 0 0 36 4954
2022-04-18 0 1 0 40 4048
2022-04-19 0 9 0 44 5344
2022-04-20 0 0 0 48 4153
2022-04-21 0 3 0 55 8132
2022-04-22 2 7 1 52 9959
2022-04-23 0 3 0 49 7655
2022-04-24 1 1 1 61 6931
2022-04-25 2 6 0 44 7260
2022-04-26 0 2 0 44 5849
2022-04-27 0 2 0 55 5585
2022-04-28 0 5 1 47 6009
2022-04-29 1 9 0 52 5398
2022-04-30 0 2 1 43 4934
Mars 2022 15 123 8 65 281935
Février 2022 17 84 9 58 314588
Janvier 2022 22 68 12 70 324182
* 2021 129 756 53 338 4376522
Décembre 2021 8 37 0 129 661064
Novembre 2021 13 99 4 153 262314
2021-11-01 0 1 0 104 6791
2021-11-02 1 4 0 86 7303
2021-11-03 3 9 1 90 4912
2021-11-04 1 2 0 113 8815
2021-11-05 1 12 1 82 8224
2021-11-06 0 6 0 79 7367
2021-11-07 0 6 0 70 7525
2021-11-08 0 0 0 84 5740
2021-11-09 0 2 0 81 6641
2021-11-10 0 2 0 115 6991
2021-11-11 2 8 0 122 9859
2021-11-12 0 3 0 125 14014
2021-11-13 0 1 1 135 14443
2021-11-14 0 3 0 153 13594
2021-11-15 0 1 0 139 14330
2021-11-16 0 2 1 132 10656
2021-11-17 0 3 0 88 7851
2021-11-18 0 1 0 88 9836
2021-11-19 0 3 0 75 12547
2021-11-20 0 4 0 72 7556
2021-11-21 0 0 0 61 5092
2021-11-22 4 7 0 67 7221
2021-11-23 1 4 0 75 7572
2021-11-24 0 3 0 71 7662
2021-11-25 0 0 0 80 5738
2021-11-26 0 1 0 75 6288
2021-11-27 0 6 0 77 8820
2021-11-28 0 2 0 83 6614
2021-11-29 0 2 0 74 11072
2021-11-30 0 1 0 122 11240
Octobre 2021 20 208 15 159 298103
2021-10-01 0 1 0 56 6171
2021-10-02 0 9 1 86 9181
2021-10-03 1 4 1 72 8747
2021-10-04 0 3 0 68 6532
2021-10-05 2 14 1 76 7922
2021-10-06 0 3 0 125 9753
2021-10-07 0 3 0 120 9963
2021-10-08 1 6 1 99 7587
2021-10-09 1 15 2 86 5434
2021-10-10 0 4 0 93 8119
2021-10-11 0 7 1 86 7114
2021-10-12 1 7 0 85 11069
2021-10-13 2 10 2 130 12013
2021-10-14 0 3 0 119 11498
2021-10-15 1 6 1 136 11138
2021-10-16 0 11 0 159 11492
2021-10-17 0 5 0 139 10881
2021-10-18 0 3 0 130 12452
2021-10-19 0 5 0 104 9710
2021-10-20 3 9 0 85 9720
2021-10-21 0 0 0 111 34450
2021-10-22 2 11 1 69 8430
2021-10-23 1 7 1 87 5533
2021-10-24 1 13 1 74 9651
2021-10-25 0 11 0 89 7704
2021-10-26 3 9 0 83 9231
2021-10-27 0 4 0 79 7575
2021-10-28 1 7 1 76 7069
2021-10-29 0 4 0 75 6460
2021-10-30 0 7 1 88 7194
2021-10-31 0 7 0 98 8310
Septembre 2021 24 171 10 280 285455
Août 2021 11 33 7 73 231609
2021-08-01 0 0 0 28 9012
2021-08-02 0 0 0 33 10340
2021-08-03 0 0 0 48 9087
2021-08-04 0 0 0 39 6385
2021-08-05 0 0 1 40 5603
2021-08-06 0 0 0 40 9211
2021-08-07 0 0 0 40 10577
2021-08-08 0 0 0 36 10060
2021-08-09 0 0 0 40 11728
2021-08-10 0 0 0 55 10109
2021-08-11 0 0 0 37 6508
2021-08-12 0 0 0 39 8136
2021-08-13 1 3 1 41 6454
2021-08-14 2 5 1 37 6972
2021-08-15 0 0 0 43 9840
2021-08-16 0 0 0 38 13142
2021-08-17 0 0 0 45 7592
2021-08-18 0 0 1 38 6557
2021-08-19 0 0 0 37 6038
2021-08-20 2 2 0 37 6461
2021-08-21 0 0 0 48 6027
2021-08-22 0 0 0 40 2939
2021-08-23 0 1 0 35 3225
2021-08-24 0 1 0 41 6669
2021-08-25 3 7 1 50 9922
2021-08-26 1 1 0 73 2986
2021-08-27 0 0 0 35 2451
2021-08-28 0 1 1 33 5309
2021-08-29 0 0 0 32 8982
2021-08-30 2 6 1 32 7294
2021-08-31 0 6 0 42 5993
Juillet 2021 6 8 2 81 305173
Juin 2021 17 31 2 135 311168
Mai 2021 3 31 4 268 597777
Avril 2021 10 51 6 287 308355
Mars 2021 7 24 1 308 444900
Février 2021 5 29 2 338 223056
Janvier 2021 5 34 0 322 447548
* 2020 206 1716 105 808 4713463
Décembre 2020 6 38 2 320 310487
2020-12-01 1 1 0 121 10809
2020-12-02 0 3 0 116 10099
2020-12-03 0 2 0 114 11876
2020-12-04 0 0 0 94 10791
2020-12-05 0 3 0 82 9574
2020-12-06 1 10 0 78 10653
2020-12-07 0 4 0 68 10998
2020-12-08 0 0 0 66 32260
2020-12-09 0 1 0 67 7435
2020-12-10 0 1 1 60 7610
2020-12-11 0 0 0 60 7643
2020-12-12 0 1 0 63 7412
2020-12-13 0 1 0 50 7185
2020-12-14 1 2 0 46 5821
2020-12-15 0 1 0 44 8427
2020-12-16 0 0 0 320 13083
2020-12-17 0 0 0 74 9703
2020-12-18 0 0 0 71 8569
2020-12-19 0 0 0 63 7390
2020-12-20 0 3 0 65 6819
2020-12-21 1 1 0 59 6108
2020-12-22 0 0 0 70 10438
2020-12-23 0 1 0 73 9331
2020-12-24 0 0 0 72 10558
2020-12-25 0 0 0 77 9826
2020-12-26 0 0 0 72 10399
2020-12-27 1 1 1 88 10008
2020-12-28 0 1 0 88 8712
2020-12-29 1 1 0 105 10795
2020-12-30 0 0 0 79 10368
2020-12-31 0 0 0 69 9787
Novembre 2020 12 97 3 352 464426
Octobre 2020 21 169 7 346 497422
Septembre 2020 30 356 15 133 325183
Août 2020 16 147 7 163 471897
Juillet 2020 16 77 2 100 345760
Juin 2020 17 60 5 127 452817
Mai 2020 7 22 3 295 321652
Avril 2020 10 47 1 189 300030
Mars 2020 24 253 3 199 467854
Février 2020 18 171 9 323 281798
Janvier 2020 29 279 48 808 474137
* 2019 246 3411 313 446 3308531
Décembre 2019 18 159 26 446 351248
2019-12-01 0 4 1 277 11373
2019-12-02 1 14 1 135 11534
2019-12-03 0 5 1 110 9010
2019-12-04 0 4 2 106 7741
2019-12-05 0 6 0 330 8461
2019-12-06 3 13 1 335 12098
2019-12-07 0 4 0 215 16251
2019-12-08 0 0 2 114 35635
2019-12-09 4 16 3 170 9809
2019-12-10 1 4 0 112 11124
2019-12-11 0 5 1 299 9463
2019-12-12 0 3 1 306 9544
2019-12-13 0 2 0 366 8347
2019-12-14 0 3 0 446 11186
2019-12-15 1 13 0 367 10258
2019-12-16 2 14 0 109 9322
2019-12-17 0 13 0 127 9034
2019-12-18 1 5 0 233 9507
2019-12-19 1 2 4 112 10126
2019-12-20 0 0 0 104 9567
2019-12-21 0 6 1 116 10009
2019-12-22 0 0 1 105 10019
2019-12-23 0 0 0 125 10592
2019-12-24 0 2 0 127 11029
2019-12-25 0 0 0 112 10531
2019-12-26 0 1 0 138 11502
2019-12-27 0 3 0 113 14168
2019-12-28 0 0 4 115 20305
2019-12-29 4 5 1 119 11114
2019-12-30 0 7 1 127 5225
2019-12-31 0 5 1 125 7364
Novembre 2019 16 245 33 325 524135
Octobre 2019 24 272 59 121 189762
Septembre 2019 25 386 54 141 376708
Août 2019 22 257 31 122 225760
Juillet 2019 24 281 62 149 190301
Juin 2019 11 171 3 112 246519
Mai 2019 23 311 10 167 218891
Avril 2019 21 294 9 174 311459
Mars 2019 22 372 16 142 344146
2019-03-01 0 30 0 102 3220
2019-03-02 0 23 0 102 3097
2019-03-03 0 4 0 99 2763
2019-03-04 0 5 0 105 2518
2019-03-05 0 11 0 99 3314
2019-03-06 0 11 1 97 5983
2019-03-07 1 6 2 102 6254
2019-03-08 1 24 1 100 9845
2019-03-09 1 11 1 104 9974
2019-03-10 0 18 0 109 12925
2019-03-11 3 18 1 124 22284
2019-03-12 0 14 0 120 15724
2019-03-13 1 23 1 125 13212
2019-03-14 0 7 1 132 13861
2019-03-15 2 17 1 112 12323
2019-03-16 0 6 1 135 11288
2019-03-17 0 6 0 129 10798
2019-03-18 1 8 0 122 10562
2019-03-19 1 7 0 126 9470
2019-03-20 1 16 1 122 10084
2019-03-21 1 12 1 128 13887
2019-03-22 0 4 0 129 13984
2019-03-23 2 9 0 123 14498
2019-03-24 4 13 0 129 36957
2019-03-25 0 14 0 134 17651
2019-03-26 1 11 1 126 9572
2019-03-27 0 4 0 56 8627
2019-03-28 0 14 1 142 8864
2019-03-29 0 5 0 126 11607
2019-03-30 0 2 0 131 10223
2019-03-31 2 19 2 129 8777
Février 2019 18 288 4 110 142132
Janvier 2019 22 375 6 113 187470
* 2018 338 6176 81 641 2624946
Décembre 2018 43 306 8 253 421582
Novembre 2018 26 467 9 641 383363
Octobre 2018 34 527 6 321 248725
Septembre 2018 34 641 10 127 216306
Août 2018 32 583 16 101 188648
Juillet 2018 21 386 3 104 182475
Juin 2018 31 442 3 110 213303
Mai 2018 21 422 4 107 174393
Avril 2018 25 564 5 104 159849
Mars 2018 20 634 4 96 152933
Février 2018 25 631 7 93 121912
Janvier 2018 26 573 6 94 161457
2018-01-01 1 13 0 81 3873
2018-01-02 0 35 0 86 4281
2018-01-03 0 16 0 84 4474
2018-01-04 0 12 0 88 3657
2018-01-05 0 25 0 83 5021
2018-01-06 1 14 1 84 5114
2018-01-07 3 35 0 78 5039
2018-01-08 0 12 0 91 4838
2018-01-09 2 43 1 88 5141
2018-01-10 0 18 0 87 5299
2018-01-11 0 6 0 74 2983
2018-01-12 1 12 1 15 1584
2018-01-13 4 36 0 18 1661
2018-01-14 2 33 0 27 2978
2018-01-15 0 10 0 22 2126
2018-01-16 0 19 0 18 1286
2018-01-17 0 6 0 16 1525
2018-01-18 0 13 1 77 2416
2018-01-19 0 24 0 88 4882
2018-01-20 1 10 0 83 4920
2018-01-21 0 14 0 86 5414
2018-01-22 0 15 0 88 5074
2018-01-23 0 21 0 91 4662
2018-01-24 1 8 0 17 13946
2018-01-25 0 11 0 80 24972
2018-01-26 0 13 0 91 3885
2018-01-27 2 12 2 85 6401
2018-01-28 6 32 0 92 7019
2018-01-29 1 12 0 86 5701
2018-01-30 0 20 0 94 5869
2018-01-31 1 23 0 88 5416
* 2017 346 6100 56 180 1675168
Décembre 2017 37 499 6 91 136063
Novembre 2017 37 675 6 93 169670
Octobre 2017 15 426 2 93 151449
Septembre 2017 28 548 5 94 135543
Août 2017 29 384 6 99 148097
Juillet 2017 25 490 5 87 176472
Juin 2017 33 603 4 89 156248
Mai 2017 26 470 2 99 181189
Avril 2017 31 490 5 180 139896
Mars 2017 27 432 3 119 90981
Février 2017 31 587 7 87 74924
2017-02-01 1 14 0 55 2090
2017-02-02 0 10 0 26 2549
2017-02-03 2 38 0 74 3460
2017-02-04 0 3 0 75 4033
2017-02-05 4 34 1 66 4596
2017-02-06 3 76 1 73 4948
2017-02-07 1 30 0 76 4581
2017-02-08 0 19 0 77 4379
2017-02-09 1 26 2 70 4735
2017-02-10 1 27 0 70 3647
2017-02-11 0 10 0 87 3878
2017-02-12 2 13 0 82 3838
2017-02-13 2 70 0 81 4357
2017-02-14 4 31 0 16 1711
2017-02-15 2 25 0 24 3776
2017-02-16 2 20 1 16 3155
2017-02-17 0 15 0 17 2432
2017-02-18 1 10 0 16 1365
2017-02-19 0 13 1 15 1380
2017-02-20 1 27 1 25 1662
2017-02-21 2 8 0 17 1136
2017-02-22 1 12 0 19 946
2017-02-23 0 20 0 25 1535
2017-02-24 1 10 0 17 879
2017-02-25 0 8 0 20 940
2017-02-26 0 10 0 18 1219
2017-02-27 0 5 0 15 954
2017-02-28 0 3 0 13 743
Janvier 2017 27 496 5 80 114636
2017-01-01 1 23 0 54 2509
2017-01-02 2 27 0 28 2705
2017-01-03 0 12 0 73 3331
2017-01-04 1 5 0 65 3498
2017-01-05 1 16 0 64 3927
2017-01-06 0 18 0 65 3258
2017-01-07 1 9 1 53 3015
2017-01-08 0 16 0 57 3949
2017-01-09 0 5 0 52 5170
2017-01-10 1 9 0 49 4823
2017-01-11 0 15 0 71 3456
2017-01-12 0 12 1 80 3183
2017-01-13 0 7 1 58 2124
2017-01-14 5 10 0 61 2678
2017-01-15 1 7 0 63 3386
2017-01-16 1 28 1 59 3267
2017-01-17 0 8 0 50 2647
2017-01-18 1 13 0 63 3800
2017-01-19 0 8 0 57 2844
2017-01-20 0 22 0 57 3446
2017-01-21 5 26 0 55 4318
2017-01-22 0 24 0 55 4567
2017-01-23 1 24 1 51 4320
2017-01-24 0 27 0 55 3811
2017-01-25 0 7 0 73 3931
2017-01-26 0 16 0 59 4468
2017-01-27 0 8 0 58 4403
2017-01-28 0 19 0 58 3812
2017-01-29 1 20 0 64 5384
2017-01-30 2 26 0 61 4841
2017-01-31 3 29 0 68 3765
* 2016 389 7721 79 245 2075605
Décembre 2016 34 533 2 170 118206
Novembre 2016 34 586 6 245 122991
Octobre 2016 43 726 7 191 160217
2016-10-01 0 2 0 77 5321
2016-10-02 1 21 0 58 3379
2016-10-03 0 20 0 65 4029
2016-10-04 4 16 0 54 5012
2016-10-05 2 26 1 54 8464
2016-10-06 2 23 0 54 4844
2016-10-07 3 30 0 58 4198
2016-10-08 0 20 0 79 5202
2016-10-09 2 16 0 139 7188
2016-10-10 0 23 0 67 5666
2016-10-11 5 27 0 65 5851
2016-10-12 1 57 0 55 5424
2016-10-13 4 46 1 60 5322
2016-10-14 3 27 0 63 4776
2016-10-15 6 27 0 191 5482
2016-10-16 1 37 1 83 5433
2016-10-17 3 23 0 82 4868
2016-10-18 0 9 0 66 3634
2016-10-19 0 13 1 64 4158
2016-10-20 0 22 1 56 15180
2016-10-21 0 14 0 55 4340
2016-10-22 1 19 0 57 3387
2016-10-23 0 3 0 30 2919
2016-10-24 1 40 1 78 4044
2016-10-25 2 31 0 76 4859
2016-10-26 0 26 0 72 5816
2016-10-27 0 20 0 72 3954
2016-10-28 0 19 0 70 4387
2016-10-29 0 26 0 63 4333
2016-10-30 1 16 0 66 4530
2016-10-31 1 27 1 77 4217
Septembre 2016 26 657 9 85 157449
Août 2016 31 721 9 114 169873
Juillet 2016 19 513 3 58 166690
2016-07-01 0 12 0 45 7913
2016-07-02 1 14 0 53 5460
2016-07-03 0 12 0 43 5640
2016-07-04 0 21 0 51 5125
2016-07-05 0 19 0 53 19299
2016-07-06 1 26 0 47 4798
2016-07-07 1 14 1 45 5226
2016-07-08 0 17 0 29 4376
2016-07-09 2 9 1 33 3581
2016-07-10 0 17 0 30 3953
2016-07-11 0 19 0 33 3994
2016-07-12 0 6 0 34 4003
2016-07-13 0 6 0 29 3703
2016-07-14 0 9 0 36 3393
2016-07-15 0 12 0 46 3985
2016-07-16 0 8 0 49 3862
2016-07-17 1 15 0 46 6224
2016-07-18 3 49 0 48 9490
2016-07-19 5 19 0 58 12133
2016-07-20 1 27 0 53 6421
2016-07-21 0 15 0 44 4051
2016-07-22 1 24 0 35 2980
2016-07-23 0 9 0 46 2786
2016-07-24 0 5 0 50 3313
2016-07-25 0 18 0 48 3778
2016-07-26 1 16 0 49 3234
2016-07-27 1 13 1 45 3378
2016-07-28 0 28 0 42 4140
2016-07-29 0 14 0 54 4296
2016-07-30 0 16 0 49 6668
2016-07-31 1 24 0 56 5487
Juin 2016 30 565 5 53 211715
2016-06-01 0 23 0 50 5705
2016-06-02 0 11 0 43 5378
2016-06-03 2 19 1 44 5189
2016-06-04 3 11 1 41 4784
2016-06-05 0 5 0 43 4968
2016-06-06 0 12 0 42 4648
2016-06-07 1 23 0 38 4900
2016-06-08 3 37 0 44 5735
2016-06-09 0 14 0 45 5120
2016-06-10 1 34 0 44 6103
2016-06-11 1 16 0 41 10876
2016-06-12 2 17 1 41 13531
2016-06-13 1 35 0 53 6090
2016-06-14 3 21 1 41 5179
2016-06-15 0 17 0 51 5317
2016-06-16 1 28 1 42 5293
2016-06-17 1 21 0 44 5043
2016-06-18 1 23 0 43 5316
2016-06-19 3 20 0 42 5955
2016-06-20 2 35 0 42 6606
2016-06-21 1 25 0 44 7531
2016-06-22 0 23 0 38 6542
2016-06-23 0 25 0 42 7081
2016-06-24 0 11 0 43 8292
2016-06-25 0 10 0 44 10674
2016-06-26 0 7 0 44 4154
2016-06-27 2 5 0 41 6089
2016-06-28 1 12 0 38 13559
2016-06-29 1 15 0 43 13424
2016-06-30 0 10 0 53 12633
Mai 2016 40 1116 8 94 166514
Avril 2016 27 529 7 65 155208
Mars 2016 35 513 11 88 224056
Février 2016 35 640 4 96 192454
Janvier 2016 35 622 8 95 230232
* 2015 373 6684 79 100 1549803
Décembre 2015 28 499 7 68 140303
2015-12-01 0 25 0 16 2350
2015-12-02 0 13 0 16 2355
2015-12-03 1 32 1 21 3677
2015-12-04 0 20 0 17 2064
2015-12-05 0 16 1 21 3894
2015-12-06 0 13 0 20 5745
2015-12-07 0 6 0 35 3625
2015-12-08 1 17 0 32 4443
2015-12-09 0 4 0 35 7622
2015-12-10 1 6 0 32 5400
2015-12-11 0 19 0 35 19913
2015-12-12 1 21 1 25 3299
2015-12-13 7 38 0 30 4377
2015-12-14 0 26 0 27 3642
2015-12-15 2 29 1 32 5486
2015-12-16 4 39 0 37 6111
2015-12-17 0 14 0 18 3269
2015-12-18 0 17 0 13 2944
2015-12-19 1 16 0 18 3387
2015-12-20 0 14 0 17 3339
2015-12-21 0 2 0 14 2174
2015-12-22 0 0 1 21 3147
2015-12-23 2 10 0 14 2552
2015-12-24 1 11 0 43 2912
2015-12-25 2 20 0 13 2346
2015-12-26 0 10 0 12 2235
2015-12-27 1 11 0 10 6406
2015-12-28 3 29 1 65 5360
2015-12-29 0 2 1 53 4266
2015-12-30 1 12 0 68 5376
2015-12-31 0 7 0 57 6587
Novembre 2015 40 724 5 35 146607
Octobre 2015 32 760 10 84 227528
Septembre 2015 40 948 13 100 169012
Août 2015 36 566 12 61 119954
Juillet 2015 29 462 7 31 89666
Juin 2015 24 453 5 30 112317
Mai 2015 30 390 2 24 73874
2015-05-01 0 17 0 15 2030
2015-05-02 1 16 0 16 2557
2015-05-03 1 29 0 18 2371
2015-05-04 2 17 0 21 1947
2015-05-05 0 2 0 16 1636
2015-05-06 0 8 0 15 2047
2015-05-07 0 6 0 14 2022
2015-05-08 0 3 0 15 1847
2015-05-09 0 5 0 18 1813
2015-05-10 2 5 0 13 1887
2015-05-11 0 6 0 14 1631
2015-05-12 2 20 1 13 2423
2015-05-13 0 11 0 13 2977
2015-05-14 0 11 0 24 3549
2015-05-15 2 11 0 18 2773
2015-05-16 1 3 1 15 2585
2015-05-17 0 6 0 12 2212
2015-05-18 4 29 0 14 2715
2015-05-19 0 8 0 15 1683
2015-05-20 0 3 0 12 1911
2015-05-21 1 4 0 13 2338
2015-05-22 1 8 0 12 1807
2015-05-23 1 6 0 15 2186
2015-05-24 2 15 0 19 4554
2015-05-25 1 21 0 24 2499
2015-05-26 2 20 0 18 2489
2015-05-27 0 21 0 17 1695
2015-05-28 3 38 0 14 2854
2015-05-29 4 23 0 15 4584
2015-05-30 0 13 0 16 1591
2015-05-31 0 5 0 11 2661
Avril 2015 29 408 4 25 95371
Mars 2015 38 550 7 37 130116
Février 2015 15 434 2 24 123854
Janvier 2015 32 490 5 44 121201
* 2014 428 7364 58 58 2478164
Décembre 2014 24 360 4 33 191610
Novembre 2014 37 572 7 46 525858
Octobre 2014 45 928 8 58 364915
2014-10-01 2 17 0 19 4681
2014-10-02 1 19 0 20 4689
2014-10-03 2 14 0 14 3669
2014-10-04 0 5 0 17 3255
2014-10-05 0 1 0 19 2928
2014-10-06 0 11 0 21 3996
2014-10-07 3 25 1 20 3179
2014-10-08 2 38 0 25 5334
2014-10-09 2 52 0 23 6395
2014-10-10 4 54 1 20 5653
2014-10-11 0 14 0 27 6513
2014-10-12 4 38 0 20 4101
2014-10-13 1 60 1 23 7192
2014-10-14 1 40 1 21 5942
2014-10-15 0 50 0 19 8910
2014-10-16 4 67 1 20 7064
2014-10-17 2 59 0 24 7070
2014-10-18 0 8 0 18 8711
2014-10-19 1 18 0 14 7781
2014-10-20 3 75 2 22 5872
2014-10-21 2 43 0 21 6010
2014-10-22 1 17 0 21 7505
2014-10-23 2 34 0 20 6639
2014-10-24 0 22 0 19 8041
2014-10-25 2 16 0 24 10924
2014-10-26 0 21 0 32 24155
2014-10-27 0 16 0 41 31060
2014-10-28 2 11 1 40 35764
2014-10-29 3 46 0 58 43273
2014-10-30 1 31 0 54 39908
2014-10-31 0 6 0 53 38701
Septembre 2014 24 549 8 32 162413
Août 2014 17 251 4 27 191624
2014-08-01 0 11 0 17 4869
2014-08-02 2 8 0 20 4008
2014-08-03 5 21 0 22 3930
2014-08-04 0 13 0 27 7210
2014-08-05 2 12 1 24 7177
2014-08-06 0 16 0 27 6701
2014-08-07 0 7 0 25 3965
2014-08-08 0 13 0 27 6141
2014-08-09 0 2 0 21 4733
2014-08-10 1 21 1 23 5317
2014-08-11 0 0 0 22 5671
2014-08-12 0 7 0 24 6599
2014-08-13 0 1 0 15 4833
2014-08-14 0 1 1 17 5819
2014-08-15 0 0 0 18 6630
2014-08-16 1 9 0 21 6366
2014-08-17 0 11 0 19 6206
2014-08-18 0 3 0 19 7614
2014-08-19 1 2 0 25 6728
2014-08-20 1 6 0 27 8084
2014-08-21 0 8 0 27 9580
2014-08-22 1 6 0 25 9362
2014-08-23 0 7 0 22 6382
2014-08-24 2 6 0 22 5960
2014-08-25 0 5 0 25 5413
2014-08-26 0 9 0 24 6547
2014-08-27 0 5 0 23 5741
2014-08-28 0 6 0 21 6634
2014-08-29 1 9 1 25 5677
2014-08-30 0 3 0 22 6121
2014-08-31 0 23 0 23 5606
Juillet 2014 25 369 3 30 236312
2014-07-01 1 10 0 19 5255
2014-07-02 2 27 0 18 5751
2014-07-03 1 33 0 28 6315
2014-07-04 1 28 1 30 9465
2014-07-05 0 18 0 28 10029
2014-07-06 0 9 0 22 8518
2014-07-07 2 9 0 26 4726
2014-07-08 1 9 1 20 6102
2014-07-09 1 7 0 20 6697
2014-07-10 0 5 0 22 5937
2014-07-11 0 12 0 13 5141
2014-07-12 0 8 0 23 8506
2014-07-13 1 7 0 19 9921
2014-07-14 1 16 0 12 5280
2014-07-15 4 12 0 13 3488
2014-07-16 1 7 0 28 10016
2014-07-17 0 9 0 24 16100
2014-07-18 0 11 0 23 16608
2014-07-19 1 7 0 18 16697
2014-07-20 1 7 0 20 4967
2014-07-21 0 1 0 26 6993
2014-07-22 1 11 0 21 8213
2014-07-23 0 13 0 23 8227
2014-07-24 0 1 0 23 8500
2014-07-25 1 8 0 21 8352
2014-07-26 0 4 0 21 6351
2014-07-27 1 22 1 11 2847
2014-07-28 2 21 0 17 4541
2014-07-29 0 7 0 16 6234
2014-07-30 0 17 0 18 5977
2014-07-31 2 13 0 15 4558
Juin 2014 29 602 3 32 220918
Mai 2014 34 842 6 29 157174
Avril 2014 45 662 1 25 104486
Mars 2014 32 595 4 26 120439
Février 2014 24 660 5 28 102996
Janvier 2014 92 974 5 33 99419
* 2013 408 8887 76 89 1597727
Décembre 2013 36 785 2 79 132305
Novembre 2013 36 751 8 29 141119
Octobre 2013 37 683 10 26 116570
2013-10-01 1 22 0 20 3500
2013-10-02 1 17 0 11 2628
2013-10-03 3 37 0 17 2638
2013-10-04 0 5 0 16 2483
2013-10-05 0 2 1 17 2138
2013-10-06 1 4 1 16 2110
2013-10-07 2 13 0 19 5005
2013-10-08 0 18 0 18 2789
2013-10-09 4 52 0 21 4561
2013-10-10 0 18 0 19 2704
2013-10-11 1 30 0 18 2775
2013-10-12 0 8 1 19 6217
2013-10-13 4 44 2 20 4896
2013-10-14 1 23 0 26 8009
2013-10-15 1 13 1 26 6880
2013-10-16 0 14 0 13 2695
2013-10-17 1 13 0 13 4087
2013-10-18 0 23 0 20 3077
2013-10-19 1 18 0 23 4612
2013-10-20 2 17 0 20 3338
2013-10-21 0 36 0 14 4318
2013-10-22 2 42 2 14 4325
2013-10-23 2 69 0 15 3343
2013-10-24 1 34 0 15 2678
2013-10-25 0 13 0 20 3168
2013-10-26 0 9 0 11 3251
2013-10-27 0 4 1 18 3432
2013-10-28 6 29 0 17 3715
2013-10-29 2 32 0 17 4856
2013-10-30 1 17 1 19 3476
2013-10-31 0 7 0 14 2866
Septembre 2013 33 723 15 29 160779
Août 2013 20 356 4 30 113960
2013-08-01 0 1 0 17 6165
2013-08-02 2 10 1 30 3363
2013-08-03 0 4 0 18 3801
2013-08-04 1 6 0 15 4126
2013-08-05 2 13 0 22 3858
2013-08-06 0 8 0 17 5385
2013-08-07 0 5 0 17 3665
2013-08-08 0 10 0 18 3057
2013-08-09 0 6 0 18 4374
2013-08-10 1 2 0 16 4563
2013-08-11 0 9 0 17 4114
2013-08-12 0 1 0 20 4489
2013-08-13 1 17 0 19 4829
2013-08-14 0 7 0 15 2333
2013-08-15 0 2 0 14 2977
2013-08-16 0 1 0 15 4833
2013-08-17 0 2 0 13 3056
2013-08-18 0 7 0 13 2784
2013-08-19 1 3 0 12 3124
2013-08-20 1 8 0 13 2097
2013-08-21 0 10 0 14 2180
2013-08-22 0 9 0 15 2515
2013-08-23 0 13 1 23 3032
2013-08-24 2 21 0 14 2563
2013-08-25 1 8 0 14 2604
2013-08-26 1 13 0 14 1978
2013-08-27 1 22 0 18 2519
2013-08-28 0 30 0 14 3594
2013-08-29 0 26 1 17 2491
2013-08-30 2 41 1 20 8436
2013-08-31 4 41 0 22 5055
Juillet 2013 21 331 2 24 120164
Juin 2013 40 731 5 34 119512
Mai 2013 34 881 3 47 157484
Avril 2013 38 799 8 33 124279
Mars 2013 40 1111 9 62 147762
Février 2013 32 838 5 79 125299
2013-02-01 2 20 1 38 4770
2013-02-02 0 12 0 40 3753
2013-02-03 3 19 0 33 3610
2013-02-04 0 34 0 41 4908
2013-02-05 2 22 0 22 4094
2013-02-06 0 19 0 20 3240
2013-02-07 0 22 1 79 4987
2013-02-08 0 26 0 16 2458
2013-02-09 0 34 0 14 2084
2013-02-10 0 16 0 16 2327
2013-02-11 3 27 0 61 4020
2013-02-12 5 48 1 47 4064
2013-02-13 1 79 0 37 3898
2013-02-14 3 74 1 34 3452
2013-02-15 1 45 0 31 3283
2013-02-16 1 31 1 37 3089
2013-02-17 3 30 0 45 3996
2013-02-18 1 42 0 56 3300
2013-02-19 1 43 0 52 5836
2013-02-20 0 24 0 43 5131
2013-02-21 0 33 0 52 5984
2013-02-22 1 20 0 44 4402
2013-02-23 0 17 0 49 3514
2013-02-24 1 18 0 20 5210
2013-02-25 2 21 0 23 9279
2013-02-26 0 18 0 35 9894
2013-02-27 2 20 0 40 5096
2013-02-28 0 24 0 52 5620
Janvier 2013 41 898 5 89 138494
* 2012 446 10690 67 157 1274957
Décembre 2012 57 1411 4 45 150137
Novembre 2012 46 1137 8 25 112399
Octobre 2012 45 1068 7 25 80970
Septembre 2012 37 876 11 38 107023
Août 2012 30 595 5 41 95032
Juillet 2012 24 563 2 157 78638
Juin 2012 39 984 10 33 88620
Mai 2012 22 703 5 26 77701
Avril 2012 33 714 4 33 95151
Mars 2012 35 977 5 48 160160
Février 2012 34 704 5 33 117877
2012-02-01 4 29 0 21 3610
2012-02-02 2 26 0 24 5279
2012-02-03 0 13 0 16 3779
2012-02-04 1 23 0 19 3802
2012-02-05 1 18 0 21 4835
2012-02-06 4 31 1 28 4403
2012-02-07 3 36 0 21 3830
2012-02-08 0 16 0 21 3805
2012-02-09 1 23 0 21 3894
2012-02-10 0 29 1 23 3679
2012-02-11 0 7 0 24 3043
2012-02-12 0 17 0 25 3175
2012-02-13 2 14 1 13 2124
2012-02-14 0 34 0 22 3657
2012-02-15 2 25 0 25 3278
2012-02-16 0 5 0 24 2556
2012-02-17 0 15 1 24 3186
2012-02-18 1 10 0 17 2384
2012-02-19 4 21 0 20 2559
2012-02-20 1 31 0 23 2799
2012-02-21 1 45 0 21 4992
2012-02-22 0 31 0 32 6101
2012-02-23 0 9 0 31 5330
2012-02-24 1 28 0 22 4611
2012-02-25 2 20 1 32 4925
2012-02-26 2 50 0 29 5297
2012-02-27 1 26 0 33 4546
2012-02-28 1 45 0 23 5919
2012-02-29 0 27 0 26 6479
Janvier 2012 44 958 1 30 111249
* 2011 822 21877 118 48 1861895
Décembre 2011 68 1315 7 36 141929
Novembre 2011 94 1539 4 36 150015
2011-11-01 3 44 0 23 4947
2011-11-02 6 67 0 20 4287
2011-11-03 4 65 0 24 4618
2011-11-04 10 91 0 19 4838
2011-11-05 6 39 0 21 3164
2011-11-06 4 77 0 21 4609
2011-11-07 6 77 1 20 4952
2011-11-08 2 48 0 19 3243
2011-11-09 2 36 0 22 4723
2011-11-10 4 55 0 19 3721
2011-11-11 2 37 0 20 3239
2011-11-12 2 15 0 21 4391
2011-11-13 1 21 0 27 4446
2011-11-14 4 60 0 27 4759
2011-11-15 5 58 0 25 7805
2011-11-16 2 50 0 23 3902
2011-11-17 2 49 0 18 3185
2011-11-18 1 67 0 26 6226
2011-11-19 0 38 0 26 6646
2011-11-20 2 61 1 36 8056
2011-11-21 1 45 0 25 6692
2011-11-22 1 31 0 30 6080
2011-11-23 4 50 0 23 4242
2011-11-24 1 40 0 25 5667
2011-11-25 2 45 0 24 3992
2011-11-26 2 43 1 19 3693
2011-11-27 2 65 1 26 5393
2011-11-28 4 77 0 31 5999
2011-11-29 2 39 0 33 5234
2011-11-30 7 49 0 29 7266
Octobre 2011 81 1597 13 41 169207
Septembre 2011 96 1991 19 24 158540
2011-09-01 1 105 0 18 4820
2011-09-02 0 44 0 17 3692
2011-09-03 0 35 0 16 3065
2011-09-04 1 39 1 18 3341
2011-09-05 4 67 1 21 3815
2011-09-06 0 37 0 12 5171
2011-09-07 2 64 2 17 7762
2011-09-08 2 83 0 23 7440
2011-09-09 0 103 0 20 8363
2011-09-10 0 27 0 15 6046
2011-09-11 11 96 0 24 5135
2011-09-12 6 137 1 18 5300
2011-09-13 18 102 0 19 6004
2011-09-14 5 57 0 22 4369
2011-09-15 2 43 0 15 3469
2011-09-16 3 88 0 18 5547
2011-09-17 1 43 2 19 4640
2011-09-18 4 42 2 21 5991
2011-09-19 2 80 0 18 5773
2011-09-20 4 66 1 22 6364
2011-09-21 8 83 0 21 5960
2011-09-22 1 47 2 20 4972
2011-09-23 2 43 0 18 4346
2011-09-24 2 44 0 23 3841
2011-09-25 2 62 3 20 4963
2011-09-26 1 65 0 19 4935
2011-09-27 6 66 3 19 4561
2011-09-28 3 108 1 21 5839
2011-09-29 5 77 0 18 7139
2011-09-30 0 38 0 15 5877
Août 2011 68 1372 16 48 135201
Juillet 2011 57 1156 10 30 112626
Juin 2011 40 1214 6 31 149115
Mai 2011 64 1997 8 39 181997
Avril 2011 46 1637 9 38 176986
2011-04-01 3 85 0 24 5196
2011-04-02 2 26 0 25 3181
2011-04-03 1 47 0 22 3986
2011-04-04 5 87 0 23 5162
2011-04-05 3 126 0 26 5929
2011-04-06 2 86 0 30 5882
2011-04-07 2 66 0 28 5722
2011-04-08 1 43 0 24 4364
2011-04-09 0 20 0 30 5658
2011-04-10 2 18 0 23 5927
2011-04-11 1 70 0 29 6508
2011-04-12 2 92 0 16 4305
2011-04-13 0 60 0 19 3888
2011-04-14 3 58 2 36 11355
2011-04-15 1 48 0 26 8294
2011-04-16 0 22 0 24 5495
2011-04-17 0 22 0 27 5056
2011-04-18 1 49 1 38 7751
2011-04-19 0 41 0 32 8124
2011-04-20 0 29 1 28 7842
2011-04-21 2 75 2 29 7444
2011-04-22 4 72 1 33 6852
2011-04-23 2 53 0 26 6996
2011-04-24 3 39 1 32 6830
2011-04-25 1 54 0 27 5518
2011-04-26 2 61 0 30 6064
2011-04-27 1 30 0 22 4274
2011-04-28 0 71 0 28 4955
2011-04-29 0 49 0 28 4772
2011-04-30 2 38 1 24 3656
Mars 2011 54 2388 6 31 211307
Février 2011 59 2656 5 46 128248
Janvier 2011 95 3015 15 44 146724
* 2010 615 23079 70 91 1409620
Décembre 2010 54 2635 5 43 199984
Novembre 2010 59 2475 6 49 127779
2010-11-01 2 69 0 42 4918
2010-11-02 4 147 0 40 5882
2010-11-03 1 134 0 34 4974
2010-11-04 4 98 0 28 4484
2010-11-05 3 140 0 34 4770
2010-11-06 1 30 0 25 2633
2010-11-07 1 56 0 25 3634
2010-11-08 1 50 0 37 4890
2010-11-09 2 60 1 38 3406
2010-11-10 3 87 0 41 4949
2010-11-11 2 48 0 40 3457
2010-11-12 1 54 0 28 3255
2010-11-13 1 41 0 24 2528
2010-11-14 2 94 0 37 4624
2010-11-15 1 129 1 49 4879
2010-11-16 1 82 0 33 4288
2010-11-17 0 44 0 27 4513
2010-11-18 1 65 0 22 3684
2010-11-19 2 72 2 23 3586
2010-11-20 4 70 0 24 3798
2010-11-21 3 70 0 26 3650
2010-11-22 3 81 0 30 4196
2010-11-23 1 80 0 26 4872
2010-11-24 3 110 1 27 4984
2010-11-25 3 129 1 33 4861
2010-11-26 1 85 0 32 4900
2010-11-27 1 38 0 27 3096
2010-11-28 0 46 0 34 3836
2010-11-29 3 111 0 33 4893
2010-11-30 4 155 0 33 5339
Octobre 2010 56 2811 15 58 134942
Septembre 2010 53 1528 8 29 95249
Août 2010 32 1287 6 33 89617
2010-08-01 2 44 0 14 2375
2010-08-02 1 72 0 19 3526
2010-08-03 2 81 0 33 3516
2010-08-04 0 87 0 21 2742
2010-08-05 0 80 0 17 3348
2010-08-06 2 149 0 20 3946
2010-08-07 1 29 1 17 2159
2010-08-08 1 27 0 16 2369
2010-08-09 3 52 0 20 2680
2010-08-10 0 52 0 15 3070
2010-08-11 2 38 0 21 4295
2010-08-12 1 36 0 18 2513
2010-08-13 0 15 0 15 2131
2010-08-14 0 10 1 8 6123
2010-08-15 0 5 1 10 2220
2010-08-16 2 21 0 12 2503
2010-08-17 0 12 0 13 2212
2010-08-18 0 17 0 12 2490
2010-08-19 0 24 0 11 2741
2010-08-20 2 30 0 22 3123
2010-08-21 1 20 0 13 2077
2010-08-22 2 35 0 12 1743
2010-08-23 3 43 0 16 2815
2010-08-24 1 41 0 17 3088
2010-08-25 0 47 0 14 2711
2010-08-26 1 61 0 16 2920
2010-08-27 2 37 0 15 3274
2010-08-28 0 20 0 9 1779
2010-08-29 0 16 1 14 2423
2010-08-30 1 32 0 17 3130
2010-08-31 2 54 2 15 3575
Juillet 2010 34 1637 5 32 97290
Juin 2010 46 2137 3 28 109648
2010-06-01 0 68 0 21 3537
2010-06-02 1 57 0 17 3123
2010-06-03 1 75 0 15 4006
2010-06-04 0 85 0 20 3645
2010-06-05 0 34 0 20 2486
2010-06-06 3 30 0 17 2856
2010-06-07 2 86 0 22 10278
2010-06-08 0 64 0 18 5044
2010-06-09 4 159 1 23 4282
2010-06-10 2 122 0 19 3974
2010-06-11 2 64 0 23 3155
2010-06-12 1 20 0 16 3002
2010-06-13 1 34 0 22 2837
2010-06-14 1 34 0 25 3405
2010-06-15 1 74 0 25 3620
2010-06-16 0 98 0 28 4159
2010-06-17 1 119 0 23 4270
2010-06-18 3 81 0 19 3422
2010-06-19 1 50 0 23 2451
2010-06-20 1 22 0 19 2286
2010-06-21 5 64 0 20 2985
2010-06-22 2 99 1 23 3730
2010-06-23 2 99 0 23 4043
2010-06-24 4 128 1 18 4041
2010-06-25 1 78 0 19 3593
2010-06-26 0 6 0 15 2050
2010-06-27 1 31 0 18 2375
2010-06-28 4 99 0 21 3892
2010-06-29 0 67 0 20 3134
2010-06-30 2 90 0 23 3967
Mai 2010 50 1497 6 28 99050
2010-05-01 1 32 0 21 2421
2010-05-02 3 74 0 19 3038
2010-05-03 8 104 1 18 3744
2010-05-04 2 85 3 21 4178
2010-05-05 0 40 0 17 3300
2010-05-06 1 42 0 23 2824
2010-05-07 0 73 0 18 3255
2010-05-08 1 44 0 15 3488
2010-05-09 1 41 0 15 3389
2010-05-10 1 68 0 19 3933
2010-05-11 1 48 0 22 5245
2010-05-12 0 29 0 26 3746
2010-05-13 0 7 0 18 2614
2010-05-14 2 27 0 20 2765
2010-05-15 0 19 0 19 2419
2010-05-16 2 18 0 16 2298
2010-05-17 0 57 1 15 3088
2010-05-18 3 32 0 19 2709
2010-05-19 1 31 0 19 2946
2010-05-20 1 29 0 25 2781
2010-05-21 3 39 0 18 2646
2010-05-22 0 19 0 21 2436
2010-05-23 2 20 0 20 2475
2010-05-24 1 27 0 19 2780
2010-05-25 5 104 0 19 4022
2010-05-26 3 91 0 18 3752
2010-05-27 1 50 0 17 3010
2010-05-28 2 50 0 28 3237
2010-05-29 1 43 0 20 3063
2010-05-30 2 50 1 18 2987
2010-05-31 2 104 0 25 4461
Avril 2010 45 1888 3 26 102219
Mars 2010 53 1534 2 46 118201
2010-03-01 2 57 0 30 3808
2010-03-02 1 43 0 28 3278
2010-03-03 1 50 0 25 3337
2010-03-04 1 45 0 29 2857
2010-03-05 2 45 0 23 2770
2010-03-06 0 15 1 22 3117
2010-03-07 3 37 1 27 3446
2010-03-08 2 103 0 29 4766
2010-03-09 4 45 0 30 3965
2010-03-10 1 57 0 29 4220
2010-03-11 1 71 0 36 4632
2010-03-12 0 25 0 30 4266
2010-03-13 4 54 0 32 4286
2010-03-14 1 46 0 16 4716
2010-03-15 2 68 0 35 4863
2010-03-16 0 24 0 29 4037
2010-03-17 3 52 0 26 4054
2010-03-18 2 43 0 25 3982
2010-03-19 0 43 0 46 4350
2010-03-20 1 24 0 28 3099
2010-03-21 4 43 0 27 3413
2010-03-22 6 57 0 19 3536
2010-03-23 2 73 0 16 3468
2010-03-24 1 69 0 24 3359
2010-03-25 1 37 0 19 3480
2010-03-26 0 40 0 21 3801
2010-03-27 0 21 0 16 2808
2010-03-28 2 34 0 17 3354
2010-03-29 3 83 0 15 4329
2010-03-30 1 60 0 19 3857
2010-03-31 2 70 0 21 4947
Février 2010 65 1574 4 91 117274
Janvier 2010 68 2076 7 43 118367
* 2009 752 28223 96 159 970278
Décembre 2009 39 2001 5 54 122418
Novembre 2009 59 3138 6 38 117432
Octobre 2009 67 3218 11 18 122232
2009-10-01 0 76 0 11 2516
2009-10-02 1 64 0 10 2579
2009-10-03 2 101 0 11 2851
2009-10-04 1 126 0 12 3520
2009-10-05 4 87 0 15 3448
2009-10-06 5 84 0 13 3357
2009-10-07 3 120 1 11 3765
2009-10-08 3 194 0 14 4579
2009-10-09 0 85 0 11 2918
2009-10-10 3 88 1 11 2279
2009-10-11 4 158 1 12 4547
2009-10-12 3 160 0 13 4399
2009-10-13 4 115 1 16 3779
2009-10-14 1 84 0 13 3531
2009-10-15 0 71 0 14 3213
2009-10-16 0 67 0 17 11597
2009-10-17 1 50 0 17 3148
2009-10-18 0 67 1 16 4508
2009-10-19 4 165 1 18 5455
2009-10-20 0 85 0 14 3066
2009-10-21 3 105 1 12 4822
2009-10-22 2 99 1 13 3611
2009-10-23 2 108 0 15 3666
2009-10-24 1 67 1 12 2884
2009-10-25 1 79 0 15 3733
2009-10-26 3 100 1 13 3989
2009-10-27 5 143 0 15 4733
2009-10-28 0 60 1 12 2921
2009-10-29 1 120 0 14 3964
2009-10-30 4 193 0 17 4507
2009-10-31 6 97 0 15 4347
Septembre 2009 73 2730 14 159 92082
Août 2009 47 1405 8 15 61919
2009-08-01 2 39 0 13 1336
2009-08-02 0 69 0 11 2391
2009-08-03 1 44 0 11 1874
2009-08-04 3 65 0 11 2245
2009-08-05 2 48 0 10 1649
2009-08-06 0 16 0 11 1298
2009-08-07 0 47 1 8 1823
2009-08-08 3 37 1 9 1618
2009-08-09 0 29 0 7 1656
2009-08-10 1 38 0 10 1645
2009-08-11 0 24 0 9 1552
2009-08-12 1 31 0 10 1570
2009-08-13 0 11 0 10 1503
2009-08-14 1 28 1 14 1375
2009-08-15 1 28 0 8 1978
2009-08-16 1 18 0 8 1403
2009-08-17 2 52 0 11 2044
2009-08-18 1 25 0 8 1776
2009-08-19 0 29 0 15 3027
2009-08-20 1 26 0 9 2534
2009-08-21 1 30 0 10 1626
2009-08-22 0 30 0 8 1511
2009-08-23 3 54 0 10 2054
2009-08-24 1 58 0 9 2545
2009-08-25 0 37 0 15 1903
2009-08-26 4 41 1 10 1582
2009-08-27 4 160 2 10 3765
2009-08-28 5 90 2 10 2501
2009-08-29 1 72 0 14 2703
2009-08-30 2 43 0 10 2157
2009-08-31 6 86 0 12 3275
Juillet 2009 68 1737 11 21 67267
Juin 2009 63 2759 4 37 72789
Mai 2009 46 2166 6 16 66386
Avril 2009 101 2850 6 16 73303
Mars 2009 80 3538 7 17 83610
2009-03-01 2 54 0 15 1561
2009-03-02 8 178 2 16 4208
2009-03-03 1 86 0 11 2528
2009-03-04 1 39 0 15 1730
2009-03-05 1 32 0 12 1412
2009-03-06 0 34 0 10 2207
2009-03-07 8 30 0 10 1601
2009-03-08 2 122 0 17 2214
2009-03-09 4 189 0 12 3447
2009-03-10 2 93 0 12 2867
2009-03-11 1 79 0 9 2060
2009-03-12 1 101 0 9 2336
2009-03-13 3 107 0 11 2370
2009-03-14 0 47 0 10 1454
2009-03-15 3 95 0 10 2287
2009-03-16 2 149 0 15 3335
2009-03-17 3 88 0 10 2474
2009-03-18 1 117 2 11 2993
2009-03-19 0 145 0 14 3058
2009-03-20 0 159 0 14 3545
2009-03-21 2 45 1 9 1470
2009-03-22 2 143 0 11 2597
2009-03-23 3 163 0 13 3325
2009-03-24 6 212 0 11 3583
2009-03-25 6 222 0 12 4229
2009-03-26 7 166 0 14 3647
2009-03-27 3 168 0 12 3580
2009-03-28 0 67 1 8 1864
2009-03-29 3 123 1 11 2814
2009-03-30 5 184 0 15 3914
2009-03-31 0 101 0 10 2900
Février 2009 57 1586 6 16 50521
2009-02-01 3 79 0 10 1938
2009-02-02 2 66 0 11 2491
2009-02-03 2 62 1 13 2112
2009-02-04 2 48 0 12 1911
2009-02-05 1 54 0 10 1840
2009-02-06 0 42 1 9 1456
2009-02-07 1 13 0 6 1032
2009-02-08 5 69 1 9 1650
2009-02-09 3 48 0 10 1590
2009-02-10 2 56 0 8 1453
2009-02-11 1 38 1 9 1697
2009-02-12 2 30 0 8 1354
2009-02-13 3 52 1 12 1429
2009-02-14 1 29 0 11 988
2009-02-15 2 41 0 8 1595
2009-02-16 2 62 0 10 2271
2009-02-17 1 44 0 10 1926
2009-02-18 1 62 0 10 2139
2009-02-19 5 89 0 12 2304
2009-02-20 1 66 0 12 2066
2009-02-21 0 41 0 9 1177
2009-02-22 6 58 0 11 1838
2009-02-23 2 67 0 10 1907
2009-02-24 1 64 0 12 2219
2009-02-25 1 85 0 16 2446
2009-02-26 2 76 0 12 2117
2009-02-27 1 82 0 11 2035
2009-02-28 4 63 1 10 1540
Janvier 2009 52 1095 12 10 40319
* 2008 334 4655 56 26 234055
Décembre 2008 36 663 7 12 28104
Novembre 2008 51 1090 9 10 35948
Octobre 2008 50 609 5 10 26582
Septembre 2008 40 619 5 10 24365
2008-09-01 0 6 0 7 539
2008-09-02 2 16 0 0 576
2008-09-03 1 13 0 5 857
2008-09-04 1 9 0 6 627
2008-09-05 1 15 0 7 829
2008-09-06 1 7 0 6 671
2008-09-07 1 17 0 4 1181
2008-09-08 5 29 0 6 1459
2008-09-09 0 2 0 5 741
2008-09-10 1 9 0 5 540
2008-09-11 0 7 0 6 574
2008-09-12 2 27 0 7 779
2008-09-13 0 11 0 6 602
2008-09-14 0 5 0 6 478
2008-09-15 6 28 1 6 990
2008-09-16 1 15 0 6 639
2008-09-17 0 26 1 7 1061
2008-09-18 1 14 0 6 720
2008-09-19 1 16 0 6 620
2008-09-20 0 9 0 5 403
2008-09-21 2 17 2 6 630
2008-09-22 0 32 0 7 887
2008-09-23 1 22 0 10 697
2008-09-24 3 54 0 10 1244
2008-09-25 3 27 0 7 873
2008-09-26 1 23 0 6 770
2008-09-27 0 21 0 8 670
2008-09-28 2 35 0 7 911
2008-09-29 2 57 0 6 1560
2008-09-30 2 50 1 9 1237
Août 2008 28 252 6 9 21916
Juillet 2008 20 256 5 7 16733
Juin 2008 17 363 6 26 18903
2008-06-01 1 5 0 4 292
2008-06-02 0 5 0 0 275
2008-06-03 1 18 0 0 394
2008-06-04 1 12 0 5 364
2008-06-05 0 20 0 5 515
2008-06-06 0 9 0 5 345
2008-06-07 1 9 0 3 329
2008-06-08 0 6 0 4 483
2008-06-09 0 6 0 4 293
2008-06-10 1 4 0 26 378
2008-06-11 1 5 0 3 352
2008-06-12 0 3 0 3 313
2008-06-13 0 2 0 0 459
2008-06-14 3 6 2 5 745
2008-06-15 0 5 0 4 1117
2008-06-16 0 26 0 6 920
2008-06-17 1 24 1 6 870
2008-06-18 1 36 0 6 1390
2008-06-19 0 33 0 6 1026
2008-06-20 1 31 1 6 1005
2008-06-21 0 19 0 5 1268
2008-06-22 0 3 0 3 453
2008-06-23 0 1 0 6 520
2008-06-24 0 7 0 5 332
2008-06-25 3 25 1 8 752
2008-06-26 1 22 0 5 752
2008-06-27 0 8 0 5 928
2008-06-28 0 4 1 4 1001
2008-06-29 1 4 0 8 610
2008-06-30 0 5 0 5 422
Mai 2008 17 180 2 10 13320
2008-05-01 0 2 0 3 298
2008-05-02 0 7 0 3 301
2008-05-03 0 2 0 3 238
2008-05-04 0 2 0 4 802
2008-05-05 1 4 0 3 331
2008-05-06 0 6 0 0 392
2008-05-07 0 2 0 4 358
2008-05-08 0 1 0 2 277
2008-05-09 0 5 1 4 290
2008-05-10 0 2 0 3 288
2008-05-11 1 2 0 2 369
2008-05-12 1 6 0 5 569
2008-05-13 1 10 0 5 595
2008-05-14 0 16 1 4 626
2008-05-15 3 13 0 0 742
2008-05-16 0 7 0 5 526
2008-05-17 1 7 0 5 478
2008-05-18 0 3 0 4 760
2008-05-19 0 4 0 4 495
2008-05-20 1 5 0 3 347
2008-05-21 0 12 0 4 459
2008-05-22 0 4 0 5 505
2008-05-23 0 3 0 3 360
2008-05-24 1 8 0 4 308
2008-05-25 0 5 0 2 261
2008-05-26 0 7 0 3 260
2008-05-27 0 3 0 10 398
2008-05-28 3 8 0 7 411
2008-05-29 0 5 0 5 350
2008-05-30 1 9 0 0 574
2008-05-31 3 10 0 5 352
Avril 2008 16 146 3 8 16063
Mars 2008 18 158 1 9 12835
Février 2008 19 155 2 9 9679
Janvier 2008 22 164 5 7 9607
* 2007 276 2246 55 9 102999
Décembre 2007 21 167 5 8 17081
2007-12-01 0 1 0 4 239
2007-12-02 0 2 0 4 264
2007-12-03 1 5 0 4 262
2007-12-04 0 1 0 4 266
2007-12-05 0 0 0 3 201
2007-12-06 0 2 0 4 226
2007-12-07 0 12 0 0 371
2007-12-08 1 3 0 4 451
2007-12-09 2 8 0 4 2230
2007-12-10 2 13 1 5 405
2007-12-11 0 5 1 4 312
2007-12-12 1 10 0 4 317
2007-12-13 0 2 0 0 258
2007-12-14 1 7 0 4 254
2007-12-15 2 6 0 3 303
2007-12-16 0 4 0 3 248
2007-12-17 1 6 0 4 267
2007-12-18 0 1 0 0 233
2007-12-19 2 7 0 3 285
2007-12-20 0 4 1 0 262
2007-12-21 0 3 1 8 313
2007-12-22 4 12 0 5 568
2007-12-23 0 10 0 4 406
2007-12-24 1 7 1 3 4210
2007-12-25 1 9 0 3 296
2007-12-26 0 11 0 5 383
2007-12-27 0 5 0 4 331
2007-12-28 1 6 0 0 326
2007-12-29 1 1 0 0 221
2007-12-30 0 1 0 2 2196
2007-12-31 0 3 0 2 177
Novembre 2007 20 168 3 6 8467
Octobre 2007 21 147 4 5 8193
Septembre 2007 22 183 4 9 9896
Août 2007 23 226 2 6 9096
2007-08-01 1 11 0 0 281
2007-08-02 0 4 0 4 224
2007-08-03 2 13 1 0 357
2007-08-04 0 5 0 3 265
2007-08-05 0 0 0 1 129
2007-08-06 1 1 0 2 171
2007-08-07 1 2 0 0 211
2007-08-08 0 0 0 2 132
2007-08-09 1 3 0 2 133
2007-08-10 0 1 0 2 177
2007-08-11 0 0 0 2 104
2007-08-12 0 0 0 3 97
2007-08-13 0 3 0 3 220
2007-08-14 0 0 0 3 199
2007-08-15 0 0 0 0 163
2007-08-16 1 4 0 2 166
2007-08-17 0 6 0 5 274
2007-08-18 0 3 1 3 274
2007-08-19 1 4 0 3 258
2007-08-20 1 14 0 4 417
2007-08-21 2 9 0 3 352
2007-08-22 1 18 0 3 434
2007-08-23 1 12 0 4 412
2007-08-24 0 7 0 6 267
2007-08-25 0 7 0 5 265
2007-08-26 2 11 0 4 363
2007-08-27 1 27 0 6 720
2007-08-28 1 17 0 0 580
2007-08-29 2 9 0 0 492
2007-08-30 3 27 0 5 648
2007-08-31 1 8 0 5 311
Juillet 2007 18 127 1 4 10165
Juin 2007 25 309 2 6 13196
Mai 2007 30 315 8 7 11830
Avril 2007 44 428 13 9 13382
Mars 2007 52 176 13 4 1693